Fox Island, WA

8:36 PM PDT on September 01, 2014 (GMT -0700)
Cromwell Beach | Change Station
CLOSE
Current Station
Personal Weather Station
Location: Gig Harbor, WA
Elevation: 15 ft
Nearby Weather Stations

Elev 15 ft 47.27 °N, 122.62 °W | Updated 1 minute ago

Partly Cloudy
Partly Cloudy
67.7 °F
Feels Like 67.7 °F
N
2.0
Wind Variable Wind from NW
Gusts 6.0 mph

Today
High -- | Low -- °F
--% Chance of Precip.
Yesterday
High -- | Low -- °F
Precip. -- in
6:29 AM 7:50 PM
Waxing Crescent, 47% visible
Pressure 29.99 in
Visibility 10.0 miles
Clouds Few 7500 ft
Dew Point 59 °F
Humidity 74%
Rainfall 0.00 in
Snow Depth Not available.
UV 0 out of 12
Pollen 3.10 out of 12
PM2.5 Good
Flu Activity Not available.
METAR KTIW 020253Z VRB03KT 10SM FEW075 20/13 A2999 RMK AO2 SLP153 T02000133 56011

More Conditions Fewer Conditions

Pressure 29.99 in
Visibility 10.0 miles
Clouds Few 7500 ft
Dew Point 59 °F
Humidity 74%
Rainfall 0.00 in
Snow Depth Not available.
UV 0 out of 12
Pollen 3.10 out of 12
PM2.5 Good
Flu Activity Not available.
METAR KTIW 020253Z VRB03KT 10SM FEW075 20/13 A2999 RMK AO2 SLP153 T02000133 56011

More Conditions Fewer Conditions

10-Day Weather Forecast

Almanac

Astronomy

Sep. 01, 2014 Rise Set
Actual Time 6:29 AM PDT 7:50 PM PDT
Civil Twilight 5:57 AM PDT 8:21 PM PDT
Nautical Twilight 5:19 AM PDT 8:59 PM PDT
Astronomical Twilight 4:38 AM PDT 9:40 PM PDT
Moon 1:48 PM PDT (9/1) 11:28 PM PDT (9/1)
Length of Visible Light 14h 23m
Length of Day
13h 20m
Tomorrow will be 3m 16s shorter.
Waxing Crescent, 47% of the Moon is Illuminated
Today
Waxing Crescent
Sep 2
First Quarter
Sep 8
Full
Sep 15
Last Quarter
Sep 24
New

Today's Extremes

State Highs State Lows

Community

WunderPhotos

Upload Photos

1,749,555 photos uploaded!

WunderBlogs® & News

Nearby

Air Quality

  Air Quality AQ Index Pollutant
Yesterday Good
PM2.5
Current Good
PM2.5
Monday Good
OZONE
Monday Good
PM2.5
Tuesday Good
OZONE
Tuesday Good
PM2.5
Wednesday Good
OZONE
Wednesday Good
PM2.5

Snow Depth

Station Depth Elevation
Mount Crag 0 in 4050 ft
Dungeness 0 in 4100 ft
Meadows Pass 0 in 3500 ft
Olallie Meadows 0 in 3700 ft
Alpine Meadows 0 in 3500 ft

Earthquake Activity

City Distance Mag. Time & Date
No recent earthquake activity has been reported nearby.
Minimum magnitude displayed is 2.5.

Coastal Water Temperatures

Place Temperature
Port Townsend, WA 53.1 °F
Seattle, WA 55.9 °F
Friday Harbor, WA 53.1 °F
Tacoma, WA 55.0 °F

Nearby Weather Stations